createdAt,value
2019-04-25T00:01:04.547Z,20.90
2019-04-25T00:02:21.221Z,20.72
2019-04-25T00:03:45.524Z,22.60
2019-04-25T00:04:54.059Z,21.33
2019-04-25T00:05:58.865Z,20.70
2019-04-25T00:07:03.332Z,20.60
2019-04-25T00:08:08.067Z,22.35
2019-04-25T00:09:14.410Z,21.75
2019-04-25T00:10:18.962Z,21.35
2019-04-25T00:11:23.941Z,20.35
2019-04-25T00:12:28.691Z,21.15
2019-04-25T00:13:35.062Z,21.75
2019-04-25T00:14:41.671Z,21.68
2019-04-25T00:15:47.111Z,20.72
2019-04-25T00:16:52.604Z,21.23
2019-04-25T00:17:57.067Z,21.85
2019-04-25T00:19:01.934Z,22.27
2019-04-25T00:20:07.960Z,21.68
2019-04-25T00:21:14.090Z,21.60
2019-04-25T00:22:36.546Z,21.62
2019-04-25T00:23:43.708Z,22.13
2019-04-25T00:25:15.028Z,22.82
2019-04-25T00:26:14.125Z,22.10
2019-04-25T00:27:18.587Z,21.75
2019-04-25T00:28:23.182Z,22.87
2019-04-25T00:29:27.648Z,22.13
2019-04-25T00:30:33.004Z,23.47
2019-04-25T00:31:37.467Z,21.35
2019-04-25T00:32:42.914Z,22.42
2019-04-25T00:33:48.241Z,22.13
2019-04-25T00:34:52.841Z,22.45
2019-04-25T00:35:57.370Z,21.97
2019-04-25T00:37:02.512Z,22.40
2019-04-25T00:38:07.476Z,21.80
2019-04-25T00:39:11.958Z,22.05
2019-04-25T00:40:16.692Z,21.93
2019-04-25T00:41:21.446Z,21.93
2019-04-25T00:42:25.913Z,22.37
2019-04-25T00:43:31.444Z,20.70
2019-04-25T00:44:36.088Z,22.40
2019-04-25T00:45:42.421Z,21.23
2019-04-25T00:46:49.082Z,22.73
2019-04-25T00:47:53.044Z,22.35
2019-04-25T00:48:57.511Z,21.90
2019-04-25T00:50:02.419Z,22.48
2019-04-25T00:51:06.970Z,21.90
2019-04-25T00:52:11.703Z,22.52
2019-04-25T00:53:16.203Z,22.70
2019-04-25T00:54:22.552Z,21.70
2019-04-25T00:55:29.005Z,22.32
2019-04-25T00:56:33.004Z,22.87
2019-04-25T00:57:38.434Z,22.82
2019-04-25T00:58:59.608Z,24.37
2019-04-25T01:00:21.641Z,22.67
2019-04-25T01:01:41.365Z,22.32
2019-04-25T01:02:48.338Z,22.82
2019-04-25T01:03:54.505Z,22.75
2019-04-25T01:04:58.916Z,24.50
2019-04-25T01:06:03.901Z,23.92
2019-04-25T01:07:08.702Z,24.35
2019-04-25T01:08:13.169Z,24.15
2019-04-25T01:09:18.304Z,23.45
2019-04-25T01:10:23.126Z,23.30
2019-04-25T01:11:27.828Z,23.15
2019-04-25T01:12:32.287Z,24.18
2019-04-25T01:13:36.765Z,22.85
2019-04-25T01:14:42.038Z,23.12
2019-04-25T01:15:47.059Z,24.20
2019-04-25T01:16:52.978Z,23.15
2019-04-25T01:17:58.030Z,24.45
2019-04-25T01:19:03.534Z,24.12
2019-04-25T01:20:08.431Z,23.45
2019-04-25T01:21:14.132Z,23.52
2019-04-25T01:22:19.046Z,23.40
2019-04-25T01:23:23.756Z,24.95
2019-04-25T01:24:28.327Z,24.02
2019-04-25T01:25:40.989Z,23.42
2019-04-25T01:26:39.532Z,23.00
2019-04-25T01:27:43.987Z,24.20
2019-04-25T01:28:48.455Z,23.83
2019-04-25T01:29:54.454Z,24.23
2019-04-25T01:31:00.556Z,23.32
2019-04-25T01:32:06.483Z,24.18
2019-04-25T01:33:11.346Z,23.60
2019-04-25T01:34:17.451Z,24.52
2019-04-25T01:35:26.250Z,23.83
2019-04-25T01:36:35.422Z,24.40
2019-04-25T01:37:57.825Z,23.38
2019-04-25T01:39:20.068Z,25.02
2019-04-25T01:40:43.912Z,24.40
2019-04-25T01:41:50.103Z,24.43
2019-04-25T01:43:09.451Z,24.63
2019-04-25T01:44:28.115Z,24.72
2019-04-25T01:45:34.517Z,24.18
2019-04-25T01:46:40.554Z,25.12
2019-04-25T01:47:45.545Z,24.23
2019-04-25T01:48:50.257Z,23.60
2019-04-25T01:49:56.592Z,24.25
2019-04-25T01:51:04.014Z,24.57
2019-04-25T01:52:08.643Z,24.20
2019-04-25T01:53:14.619Z,24.23
2019-04-25T01:54:19.304Z,24.12
2019-04-25T01:55:23.764Z,24.35
2019-04-25T01:56:28.229Z,24.23
2019-04-25T01:57:33.752Z,24.75
2019-04-25T01:58:38.247Z,23.57
2019-04-25T01:59:43.845Z,24.32
2019-04-25T02:00:51.347Z,24.50
2019-04-25T02:01:56.792Z,22.77
2019-04-25T02:03:03.692Z,24.47
2019-04-25T02:04:08.477Z,24.75
2019-04-25T02:05:13.984Z,25.20
2019-04-25T02:06:18.521Z,24.90
2019-04-25T02:07:23.356Z,24.27
2019-04-25T02:08:28.013Z,23.67
2019-04-25T02:09:33.695Z,25.27
2019-04-25T02:10:38.732Z,24.40
2019-04-25T02:11:44.908Z,25.25
2019-04-25T02:12:52.190Z,23.10
2019-04-25T02:13:58.892Z,24.75
2019-04-25T02:15:05.873Z,23.32
2019-04-25T02:16:09.713Z,24.27
2019-04-25T02:17:14.273Z,25.23
2019-04-25T02:18:18.734Z,24.63
2019-04-25T02:19:24.150Z,25.43
2019-04-25T02:20:28.746Z,24.12
2019-04-25T02:21:33.595Z,24.90
2019-04-25T02:22:38.410Z,25.37
2019-04-25T02:23:44.174Z,25.08
2019-04-25T02:24:49.177Z,24.70
2019-04-25T02:26:06.781Z,24.63
2019-04-25T02:27:00.799Z,25.15
2019-04-25T02:28:05.799Z,24.43
2019-04-25T02:29:10.603Z,24.82
2019-04-25T02:30:16.194Z,24.02
2019-04-25T02:31:20.654Z,24.32
2019-04-25T02:32:25.471Z,24.65
2019-04-25T02:33:29.981Z,25.50
2019-04-25T02:34:34.864Z,24.85
2019-04-25T02:35:42.899Z,26.20
2019-04-25T02:36:46.961Z,24.87
2019-04-25T02:37:51.704Z,26.05
2019-04-25T02:38:58.513Z,25.45
2019-04-25T02:40:05.825Z,25.75
2019-04-25T02:41:09.137Z,26.42
2019-04-25T02:42:16.753Z,27.17
2019-04-25T02:43:20.260Z,27.32
2019-04-25T02:44:24.991Z,27.58
2019-04-25T02:45:37.564Z,27.80
2019-04-25T02:47:03.329Z,27.67
2019-04-25T02:48:09.326Z,27.25
2019-04-25T02:49:34.877Z,27.07
2019-04-25T02:50:34.221Z,27.48
2019-04-25T02:51:55.033Z,27.48
2019-04-25T02:53:07.293Z,27.73
2019-04-25T02:54:14.029Z,28.95
2019-04-25T02:55:30.773Z,28.57
2019-04-25T02:56:33.078Z,28.90
2019-04-25T02:57:30.895Z,27.95
2019-04-25T02:58:35.793Z,28.90
2019-04-25T02:59:40.613Z,29.12
2019-04-25T03:00:52.621Z,29.00
2019-04-25T03:01:51.385Z,27.00
2019-04-25T03:02:57.284Z,27.87
2019-04-25T03:04:04.880Z,27.87
2019-04-25T03:05:10.039Z,27.37
2019-04-25T03:06:15.263Z,28.12
2019-04-25T03:07:19.924Z,29.12
2019-04-25T03:08:24.606Z,28.42
2019-04-25T03:09:29.619Z,29.23
2019-04-25T03:10:34.885Z,28.87
2019-04-25T03:11:39.811Z,29.07
2019-04-25T03:12:44.713Z,28.87
2019-04-25T03:13:49.336Z,29.90
2019-04-25T03:14:55.040Z,30.48
2019-04-25T03:16:00.719Z,28.77
2019-04-25T03:17:09.731Z,28.87
2019-04-25T03:18:15.349Z,29.75
2019-04-25T03:19:26.263Z,28.50
2019-04-25T03:20:48.739Z,30.00
2019-04-25T03:22:01.562Z,29.45
2019-04-25T03:23:09.498Z,29.20
2019-04-25T03:24:16.815Z,28.85
2019-04-25T03:25:20.488Z,28.80
2019-04-25T03:26:24.958Z,27.65
2019-04-25T03:27:30.051Z,29.12
2019-04-25T03:28:36.096Z,29.87
2019-04-25T03:29:40.582Z,30.02
2019-04-25T03:30:45.167Z,30.90
2019-04-25T03:31:49.702Z,30.80
2019-04-25T03:32:56.154Z,30.77
2019-04-25T03:34:02.561Z,28.80
2019-04-25T03:35:07.441Z,30.02
2019-04-25T03:36:11.915Z,30.40
2019-04-25T03:37:16.390Z,29.52
2019-04-25T03:38:20.845Z,30.30
2019-04-25T03:39:27.065Z,30.43
2019-04-25T03:40:31.980Z,29.18
2019-04-25T03:41:36.452Z,29.27
2019-04-25T03:42:41.281Z,29.60
2019-04-25T03:43:45.747Z,29.07
2019-04-25T03:44:50.543Z,30.27
2019-04-25T03:45:55.303Z,29.02
2019-04-25T03:47:00.080Z,29.48
2019-04-25T03:48:05.634Z,29.25
2019-04-25T03:49:10.878Z,28.95
2019-04-25T03:50:15.537Z,29.48
2019-04-25T03:51:20.078Z,29.07
2019-04-25T03:52:24.547Z,29.00
2019-04-25T03:53:29.093Z,29.63
2019-04-25T03:54:33.583Z,28.25
2019-04-25T03:55:38.434Z,28.77
2019-04-25T03:56:53.279Z,29.72
2019-04-25T03:57:49.452Z,27.87
2019-04-25T03:58:54.079Z,27.82
2019-04-25T03:59:58.549Z,27.40
2019-04-25T04:01:06.618Z,25.80
2019-04-25T04:02:09.188Z,26.52
2019-04-25T04:03:15.161Z,26.27
2019-04-25T04:04:20.088Z,25.75
2019-04-25T04:05:24.880Z,24.15
2019-04-25T04:06:29.347Z,25.02
2019-04-25T04:07:33.816Z,24.10
2019-04-25T04:08:38.280Z,24.65
2019-04-25T04:09:43.608Z,23.67
2019-04-25T04:10:48.204Z,22.82
2019-04-25T04:11:53.431Z,22.00
2019-04-25T04:12:58.415Z,22.17
2019-04-25T04:14:04.930Z,22.02
2019-04-25T04:15:09.143Z,22.25
2019-04-25T04:16:15.744Z,20.95
2019-04-25T04:17:36.712Z,20.88
2019-04-25T04:18:44.207Z,20.55
2019-04-25T04:19:56.322Z,20.43
2019-04-25T04:21:17.541Z,20.65
2019-04-25T04:22:24.124Z,20.25
2019-04-25T04:23:30.237Z,20.65
2019-04-25T04:24:36.640Z,20.37
2019-04-25T04:25:41.493Z,22.50
2019-04-25T04:26:47.601Z,21.35
2019-04-25T04:27:53.718Z,20.60
2019-04-25T04:28:58.634Z,19.77
2019-04-25T04:30:04.188Z,20.65
2019-04-25T04:31:09.093Z,19.95
2019-04-25T04:32:14.775Z,20.88
2019-04-25T04:33:29.569Z,19.95
2019-04-25T04:34:26.237Z,21.07
2019-04-25T04:35:30.708Z,19.37
2019-04-25T04:36:35.174Z,20.32
2019-04-25T04:37:39.648Z,19.73
2019-04-25T04:38:44.496Z,20.88
2019-04-25T04:39:49.222Z,20.32
2019-04-25T04:40:55.145Z,19.32
2019-04-25T04:41:59.765Z,18.37
2019-04-25T04:43:05.092Z,18.52
2019-04-25T04:44:09.987Z,18.07
2019-04-25T04:45:15.774Z,18.80
2019-04-25T04:46:20.681Z,17.73
2019-04-25T04:47:25.794Z,18.00
2019-04-25T04:48:30.425Z,16.65
2019-04-25T04:49:35.208Z,16.05
2019-04-25T04:50:40.149Z,16.02
2019-04-25T04:51:44.622Z,15.68
2019-04-25T04:52:50.263Z,15.60
2019-04-25T04:53:54.729Z,15.08
2019-04-25T04:55:06.489Z,14.03
2019-04-25T04:56:05.782Z,13.40
2019-04-25T04:57:25.704Z,13.10
2019-04-25T04:58:17.619Z,13.85
2019-04-25T04:59:24.699Z,12.58
2019-04-25T05:00:28.615Z,12.37
2019-04-25T05:01:34.725Z,11.78
2019-04-25T05:02:50.993Z,11.35
2019-04-25T05:03:57.099Z,10.58
2019-04-25T05:05:06.252Z,10.80
2019-04-25T05:06:16.257Z,10.75
2019-04-25T05:07:23.732Z,11.20
2019-04-25T05:08:31.063Z,11.05
2019-04-25T05:09:35.876Z,10.78
2019-04-25T05:10:40.672Z,10.85
2019-04-25T05:11:45.412Z,11.70
2019-04-25T05:12:49.880Z,11.18
2019-04-25T05:13:54.343Z,10.50
2019-04-25T05:14:58.818Z,11.12
2019-04-25T05:16:03.669Z,10.70
2019-04-25T05:17:08.489Z,9.80
2019-04-25T05:18:15.639Z,11.00
2019-04-25T05:19:19.780Z,10.40
2019-04-25T05:20:24.470Z,10.10
2019-04-25T05:21:28.958Z,10.68
2019-04-25T05:22:33.988Z,9.78
2019-04-25T05:23:38.457Z,10.58
2019-04-25T05:24:43.846Z,11.30
2019-04-25T05:25:48.939Z,11.43
2019-04-25T05:26:54.005Z,12.03
2019-04-25T05:28:02.879Z,11.57
2019-04-25T05:29:04.737Z,11.50
2019-04-25T05:30:11.494Z,10.78
2019-04-25T05:31:20.053Z,10.78
2019-04-25T05:32:25.240Z,10.03
2019-04-25T05:33:30.200Z,12.00
2019-04-25T05:34:35.742Z,10.20
2019-04-25T05:35:40.204Z,9.20
2019-04-25T05:36:44.684Z,8.40
2019-04-25T05:37:49.145Z,8.23
2019-04-25T05:38:53.931Z,8.35
2019-04-25T05:39:58.457Z,9.58
2019-04-25T05:41:04.571Z,8.33
2019-04-25T05:42:11.010Z,7.60
2019-04-25T05:43:16.449Z,7.90
2019-04-25T05:44:21.078Z,8.35
2019-04-25T05:45:27.251Z,7.80
2019-04-25T05:46:32.017Z,7.92
2019-04-25T05:47:37.404Z,8.23
2019-04-25T05:48:43.820Z,7.85
2019-04-25T05:49:48.644Z,7.60
2019-04-25T05:50:53.788Z,7.20
2019-04-25T05:51:58.679Z,9.00
2019-04-25T05:53:04.287Z,7.75
2019-04-25T05:54:08.832Z,6.80
2019-04-25T05:55:14.256Z,7.17
2019-04-25T05:56:20.152Z,7.45
2019-04-25T05:57:25.020Z,7.30
2019-04-25T05:58:30.259Z,7.08
2019-04-25T05:59:35.076Z,6.95
2019-04-25T06:00:44.015Z,7.62
2019-04-25T06:01:48.838Z,6.53
2019-04-25T06:02:53.441Z,6.95
2019-04-25T06:03:57.837Z,7.33
2019-04-25T06:05:03.584Z,6.75
2019-04-25T06:06:08.042Z,6.95
2019-04-25T06:07:14.490Z,6.97
2019-04-25T06:08:21.298Z,8.00
2019-04-25T06:09:28.112Z,7.45
2019-04-25T06:10:34.170Z,7.75
2019-04-25T06:11:48.811Z,7.30
2019-04-25T06:13:13.816Z,7.28
2019-04-25T06:14:20.643Z,8.93
2019-04-25T06:15:27.062Z,8.63
2019-04-25T06:16:33.338Z,7.47
2019-04-25T06:17:45.178Z,8.20
2019-04-25T06:19:13.669Z,8.58
2019-04-25T06:20:11.384Z,7.55
2019-04-25T06:21:15.846Z,8.08
2019-04-25T06:22:25.553Z,8.05
2019-04-25T06:23:47.644Z,7.67
2019-04-25T06:24:54.267Z,8.13
2019-04-25T06:25:58.773Z,7.70
2019-04-25T06:27:16.763Z,7.62
2019-04-25T06:28:23.957Z,7.50
2019-04-25T06:29:29.262Z,7.35
2019-04-25T06:30:35.215Z,7.42
2019-04-25T06:31:39.903Z,6.45
2019-04-25T06:32:44.390Z,7.42
2019-04-25T06:33:48.969Z,6.15
2019-04-25T06:34:54.258Z,7.03
2019-04-25T06:35:59.139Z,6.40
2019-04-25T06:37:04.823Z,5.97
2019-04-25T06:38:09.916Z,6.10
2019-04-25T06:39:15.346Z,5.35
2019-04-25T06:40:20.567Z,6.15
2019-04-25T06:41:26.183Z,5.87
2019-04-25T06:42:31.463Z,5.55
2019-04-25T06:43:37.849Z,5.40
2019-04-25T06:44:53.476Z,6.00
2019-04-25T06:46:15.669Z,5.55
2019-04-25T06:47:25.648Z,7.92
2019-04-25T06:48:37.899Z,4.00
2019-04-25T06:49:43.339Z,3.90
2019-04-25T06:50:47.794Z,4.78
2019-04-25T06:51:54.641Z,4.58
2019-04-25T06:52:59.416Z,4.20
2019-04-25T06:54:04.150Z,3.90
2019-04-25T06:55:08.751Z,4.12
2019-04-25T06:56:14.569Z,3.60
2019-04-25T06:57:19.046Z,4.10
2019-04-25T06:58:26.907Z,3.50
2019-04-25T06:59:30.153Z,2.72
2019-04-25T07:00:40.935Z,3.60
2019-04-25T07:01:40.838Z,2.70
2019-04-25T07:02:45.311Z,2.58
2019-04-25T07:03:50.054Z,3.33
2019-04-25T07:04:54.811Z,3.10
2019-04-25T07:05:59.267Z,2.60
2019-04-25T07:07:10.554Z,2.33
2019-04-25T07:08:10.559Z,2.47
2019-04-25T07:09:17.531Z,3.02
2019-04-25T07:10:24.180Z,3.08
2019-04-25T07:11:28.305Z,2.30
2019-04-25T07:12:34.457Z,2.15
2019-04-25T07:13:39.183Z,2.15
2019-04-25T07:14:43.983Z,1.75
2019-04-25T07:15:48.578Z,1.70
2019-04-25T07:16:53.326Z,2.25
2019-04-25T07:17:57.775Z,1.90
2019-04-25T07:19:02.388Z,2.05
2019-04-25T07:20:09.897Z,2.52
2019-04-25T07:21:15.727Z,2.75
2019-04-25T07:22:20.255Z,2.10
2019-04-25T07:23:25.448Z,2.27
2019-04-25T07:24:30.170Z,2.02
2019-04-25T07:25:36.742Z,2.00
2019-04-25T07:26:45.833Z,1.98
2019-04-25T07:27:58.005Z,1.85
2019-04-25T07:29:05.386Z,1.92
2019-04-25T07:30:46.839Z,1.95
2019-04-25T07:31:42.419Z,1.77
2019-04-25T07:32:57.406Z,2.00
2019-04-25T07:34:03.652Z,2.15
2019-04-25T07:35:08.547Z,2.00
2019-04-25T07:36:13.835Z,2.10
2019-04-25T07:37:19.205Z,1.95
2019-04-25T07:38:25.535Z,1.90
2019-04-25T07:39:30.363Z,2.40
2019-04-25T07:40:35.223Z,1.95
2019-04-25T07:41:40.590Z,2.30
2019-04-25T07:42:45.121Z,3.33
2019-04-25T07:43:49.668Z,2.58
2019-04-25T07:44:55.205Z,2.33
2019-04-25T07:45:59.797Z,2.15
2019-04-25T07:47:04.780Z,2.42
2019-04-25T07:48:09.630Z,2.05
2019-04-25T07:49:14.104Z,1.92
2019-04-25T07:50:18.900Z,2.08
2019-04-25T07:51:23.738Z,1.80
2019-04-25T07:52:29.689Z,1.70
2019-04-25T07:53:35.135Z,2.10
2019-04-25T07:54:40.498Z,1.98
2019-04-25T07:55:44.958Z,2.20
2019-04-25T07:56:49.426Z,2.20
2019-04-25T07:57:54.185Z,2.60
2019-04-25T07:58:58.661Z,1.75
2019-04-25T08:00:04.779Z,1.80
2019-04-25T08:01:11.887Z,1.87
2019-04-25T08:02:17.957Z,1.45
2019-04-25T08:03:23.736Z,1.92
2019-04-25T08:04:29.053Z,1.27
2019-04-25T08:05:35.168Z,1.60
2019-04-25T08:06:39.806Z,1.70
2019-04-25T08:07:44.560Z,1.40
2019-04-25T08:08:49.428Z,1.50
2019-04-25T08:09:54.273Z,2.12
2019-04-25T08:11:04.051Z,1.47
2019-04-25T08:12:08.632Z,1.90
2019-04-25T08:13:13.361Z,1.30
2019-04-25T08:14:35.132Z,1.02
2019-04-25T08:15:43.955Z,1.22
2019-04-25T08:16:53.785Z,1.25
2019-04-25T08:18:06.449Z,1.00
2019-04-25T08:19:13.623Z,1.07
2019-04-25T08:20:18.935Z,1.20
2019-04-25T08:21:23.954Z,0.80
2019-04-25T08:22:30.040Z,0.93
2019-04-25T08:23:37.554Z,0.90
2019-04-25T08:24:43.872Z,0.85
2019-04-25T08:25:48.428Z,0.70
2019-04-25T08:26:53.461Z,0.93
2019-04-25T08:27:58.086Z,0.85
2019-04-25T08:29:03.632Z,1.20
2019-04-25T08:30:08.872Z,1.47
2019-04-25T08:31:13.622Z,1.00
2019-04-25T08:32:19.199Z,0.80
2019-04-25T08:33:23.768Z,0.75
2019-04-25T08:34:30.188Z,0.70
2019-04-25T08:35:36.534Z,1.50
2019-04-25T08:36:41.541Z,0.82
2019-04-25T08:37:46.310Z,0.90
2019-04-25T08:38:51.056Z,1.10
2019-04-25T08:39:55.846Z,1.20
2019-04-25T08:41:01.557Z,0.98
2019-04-25T08:42:06.015Z,1.00
2019-04-25T08:43:10.766Z,0.85
2019-04-25T08:44:15.257Z,1.00
2019-04-25T08:45:20.830Z,1.00
2019-04-25T08:46:25.427Z,1.20
2019-04-25T08:47:30.436Z,1.20
2019-04-25T08:48:37.398Z,1.27
2019-04-25T08:49:45.759Z,1.12
2019-04-25T08:50:57.681Z,0.95
2019-04-25T08:52:02.136Z,1.05
2019-04-25T08:53:06.589Z,0.90
2019-04-25T08:54:18.431Z,1.22
2019-04-25T08:55:42.058Z,0.60
2019-04-25T08:56:46.579Z,0.55
2019-04-25T08:57:55.921Z,0.70
2019-04-25T08:59:06.231Z,1.80
2019-04-25T09:00:14.399Z,1.25
2019-04-25T09:01:26.378Z,0.60
2019-04-25T09:02:37.136Z,0.60
2019-04-25T09:03:48.616Z,0.70
2019-04-25T09:05:10.963Z,0.60
2019-04-25T09:06:15.767Z,0.80
2019-04-25T09:07:20.235Z,0.70
2019-04-25T09:08:24.764Z,0.40
2019-04-25T09:09:29.227Z,0.72
2019-04-25T09:10:36.423Z,0.60
2019-04-25T09:11:40.165Z,0.60
2019-04-25T09:12:45.355Z,0.80
2019-04-25T09:13:49.855Z,0.62
2019-04-25T09:14:54.825Z,0.42
2019-04-25T09:16:00.066Z,0.60
2019-04-25T09:17:04.927Z,0.80
2019-04-25T09:18:09.555Z,0.50
2019-04-25T09:19:14.309Z,0.40
2019-04-25T09:20:20.134Z,0.60
2019-04-25T09:21:25.234Z,0.50
2019-04-25T09:22:29.941Z,0.70
2019-04-25T09:23:36.468Z,1.75
2019-04-25T09:24:42.099Z,0.45
2019-04-25T09:25:46.946Z,0.70
2019-04-25T09:26:53.918Z,0.40
2019-04-25T09:27:58.681Z,0.68
2019-04-25T09:29:15.989Z,0.70
2019-04-25T09:30:10.263Z,0.50
2019-04-25T09:31:14.984Z,0.70
2019-04-25T09:32:19.602Z,0.50
2019-04-25T09:33:24.109Z,0.60
2019-04-25T09:34:28.732Z,0.50
2019-04-25T09:35:33.666Z,0.60
2019-04-25T09:36:38.250Z,1.07
2019-04-25T09:37:44.783Z,2.10
2019-04-25T09:38:53.843Z,0.80
2019-04-25T09:40:05.686Z,1.02
2019-04-25T09:41:10.977Z,0.82
2019-04-25T09:42:15.989Z,1.02
2019-04-25T09:43:21.101Z,0.45
2019-04-25T09:44:33.178Z,0.30
2019-04-25T09:45:43.903Z,0.50
2019-04-25T09:46:49.305Z,0.45
2019-04-25T09:47:55.762Z,0.72
2019-04-25T09:49:07.611Z,0.55
2019-04-25T09:50:13.970Z,0.40
2019-04-25T09:51:23.608Z,0.60
2019-04-25T09:52:28.115Z,0.65
2019-04-25T09:53:34.833Z,0.60
2019-04-25T09:54:53.527Z,0.60
2019-04-25T09:56:04.116Z,1.00
2019-04-25T09:57:11.361Z,0.50
2019-04-25T09:58:23.862Z,0.57
2019-04-25T09:59:30.125Z,0.50
2019-04-25T10:00:40.409Z,0.98
2019-04-25T10:01:48.708Z,0.50
2019-04-25T10:02:55.354Z,0.85
2019-04-25T10:03:59.837Z,0.90
2019-04-25T10:05:08.285Z,0.30
2019-04-25T10:06:14.841Z,0.50
2019-04-25T10:07:19.287Z,0.60
2019-04-25T10:08:24.251Z,0.40
2019-04-25T10:09:29.037Z,0.93
2019-04-25T10:10:33.921Z,1.00
2019-04-25T10:11:38.423Z,0.40
2019-04-25T10:12:44.225Z,0.60
2019-04-25T10:13:53.272Z,0.62
2019-04-25T10:15:20.406Z,0.50
2019-04-25T10:16:25.250Z,0.50
2019-04-25T10:17:30.005Z,0.30
2019-04-25T10:18:35.627Z,0.50
2019-04-25T10:19:40.980Z,0.50
2019-04-25T10:20:46.316Z,0.68
2019-04-25T10:21:51.822Z,0.65
2019-04-25T10:22:57.021Z,0.60
2019-04-25T10:24:03.530Z,0.47
2019-04-25T10:25:08.149Z,0.40
2019-04-25T10:26:13.539Z,0.62
2019-04-25T10:27:17.985Z,0.50
2019-04-25T10:28:23.371Z,0.53
2019-04-25T10:29:39.346Z,0.42
2019-04-25T10:30:34.822Z,0.50
2019-04-25T10:31:39.874Z,0.33
2019-04-25T10:32:46.227Z,0.30
2019-04-25T10:33:50.820Z,0.40
2019-04-25T10:34:55.571Z,0.28
2019-04-25T10:36:01.205Z,0.50
2019-04-25T10:37:06.439Z,0.57
2019-04-25T10:38:10.894Z,0.50
2019-04-25T10:39:15.450Z,0.53
2019-04-25T10:40:20.911Z,0.40
2019-04-25T10:41:25.531Z,0.57
2019-04-25T10:42:30.146Z,0.50
2019-04-25T10:43:35.342Z,0.68
2019-04-25T10:44:40.174Z,0.47
2019-04-25T10:45:48.703Z,0.62
2019-04-25T10:46:54.605Z,0.55
2019-04-25T10:48:00.241Z,0.60
2019-04-25T10:49:04.964Z,0.50
2019-04-25T10:50:09.792Z,0.93
2019-04-25T10:51:14.320Z,0.70
2019-04-25T10:52:19.490Z,1.00
2019-04-25T10:53:25.169Z,0.60
2019-04-25T10:54:30.181Z,0.90
2019-04-25T10:55:34.881Z,0.70
2019-04-25T10:56:40.141Z,0.82
2019-04-25T10:57:45.527Z,0.82
2019-04-25T10:58:50.911Z,0.80
2019-04-25T11:00:06.146Z,0.62
2019-04-25T11:01:01.975Z,0.80
2019-04-25T11:02:08.174Z,0.50
2019-04-25T11:03:30.251Z,0.80
2019-04-25T11:04:36.354Z,0.70
2019-04-25T11:05:41.495Z,0.68
2019-04-25T11:06:45.959Z,0.90
2019-04-25T11:07:50.448Z,0.72
2019-04-25T11:08:57.574Z,0.80
2019-04-25T11:10:03.603Z,0.50
2019-04-25T11:11:10.814Z,0.80
2019-04-25T11:12:16.288Z,0.78
2019-04-25T11:13:24.891Z,1.07
2019-04-25T11:14:30.976Z,0.90
2019-04-25T11:15:36.145Z,0.80
2019-04-25T11:16:40.697Z,1.10
2019-04-25T11:17:46.770Z,0.80
2019-04-25T11:18:52.594Z,0.70
2019-04-25T11:19:57.822Z,1.10
2019-04-25T11:21:05.595Z,0.60
2019-04-25T11:22:08.846Z,0.80
2019-04-25T11:23:13.963Z,1.10
2019-04-25T11:24:18.520Z,0.98
2019-04-25T11:25:24.503Z,0.80
2019-04-25T11:26:29.026Z,1.35
2019-04-25T11:27:34.032Z,0.90
2019-04-25T11:28:40.639Z,0.70
2019-04-25T11:29:46.035Z,1.10
2019-04-25T11:30:52.746Z,1.05
2019-04-25T11:31:58.344Z,1.00
2019-04-25T11:33:03.586Z,1.00
2019-04-25T11:34:09.443Z,1.00
2019-04-25T11:35:14.968Z,0.98
2019-04-25T11:36:20.039Z,1.00
2019-04-25T11:37:26.765Z,0.78
2019-04-25T11:38:38.877Z,0.65
2019-04-25T11:39:45.997Z,0.98
2019-04-25T11:40:55.162Z,0.70
2019-04-25T11:42:00.024Z,0.40
2019-04-25T11:43:04.693Z,0.60
2019-04-25T11:44:09.147Z,0.78
2019-04-25T11:45:14.409Z,0.80
2019-04-25T11:46:19.028Z,0.55
2019-04-25T11:47:25.580Z,0.60
2019-04-25T11:48:30.314Z,0.50
2019-04-25T11:49:35.288Z,0.50
2019-04-25T11:50:40.932Z,0.50
2019-04-25T11:51:46.106Z,0.53
2019-04-25T11:52:51.011Z,0.47
2019-04-25T11:53:55.609Z,0.50
2019-04-25T11:55:00.416Z,0.35
2019-04-25T11:56:05.035Z,0.50
2019-04-25T11:57:09.485Z,0.42
2019-04-25T11:58:14.332Z,0.62
2019-04-25T11:59:18.945Z,0.90
2019-04-25T12:00:30.623Z,0.70
2019-04-25T12:01:35.401Z,0.53
2019-04-25T12:02:39.929Z,0.82
2019-04-25T12:03:46.608Z,0.50
2019-04-25T12:04:51.056Z,0.30
2019-04-25T12:05:56.872Z,0.50
2019-04-25T12:07:03.843Z,0.55
2019-04-25T12:08:08.683Z,0.45
2019-04-25T12:09:13.871Z,0.60
2019-04-25T12:10:19.579Z,0.50
2019-04-25T12:11:25.249Z,0.40
2019-04-25T12:12:29.822Z,0.50
2019-04-25T12:13:34.563Z,0.43
2019-04-25T12:14:39.362Z,0.50
2019-04-25T12:15:46.043Z,0.72
2019-04-25T12:16:51.899Z,0.80
2019-04-25T12:17:57.621Z,0.88
2019-04-25T12:19:02.126Z,0.68
2019-04-25T12:20:06.946Z,0.60
2019-04-25T12:21:11.506Z,0.40
2019-04-25T12:22:15.945Z,0.47
2019-04-25T12:23:20.726Z,0.68
2019-04-25T12:24:25.473Z,0.60
2019-04-25T12:25:29.939Z,1.02
2019-04-25T12:26:34.411Z,0.70
2019-04-25T12:27:39.151Z,0.55
2019-04-25T12:28:44.991Z,0.45
2019-04-25T12:29:50.343Z,1.00
2019-04-25T12:30:55.419Z,0.40
2019-04-25T12:32:01.212Z,0.40
2019-04-25T12:33:18.012Z,0.40
2019-04-25T12:34:11.839Z,0.50
2019-04-25T12:35:16.292Z,0.55
2019-04-25T12:36:20.751Z,0.50
2019-04-25T12:37:25.287Z,0.50
2019-04-25T12:38:29.763Z,0.70
2019-04-25T12:39:35.194Z,0.98
2019-04-25T12:40:39.942Z,0.55
2019-04-25T12:41:46.753Z,0.60
2019-04-25T12:42:52.191Z,0.70
2019-04-25T12:44:04.071Z,0.60
2019-04-25T12:45:11.509Z,1.00
2019-04-25T12:46:20.402Z,0.50
2019-04-25T12:47:29.208Z,0.60
2019-04-25T12:48:34.142Z,0.40
2019-04-25T12:49:38.571Z,0.50
2019-04-25T12:50:43.965Z,0.78
2019-04-25T12:51:48.531Z,0.40
2019-04-25T12:52:54.675Z,0.50
2019-04-25T12:53:59.243Z,0.50
2019-04-25T12:55:05.345Z,0.50
2019-04-25T12:56:09.803Z,1.05
2019-04-25T12:57:14.630Z,0.50
2019-04-25T12:58:19.091Z,0.50
2019-04-25T12:59:23.869Z,0.40
2019-04-25T13:00:30.221Z,0.70
2019-04-25T13:01:35.046Z,0.60
2019-04-25T13:02:39.505Z,0.40
2019-04-25T13:03:44.009Z,0.50
2019-04-25T13:04:48.440Z,0.80
2019-04-25T13:05:54.079Z,0.78
2019-04-25T13:06:59.874Z,0.45
2019-04-25T13:08:04.891Z,0.70
2019-04-25T13:09:11.755Z,0.57
2019-04-25T13:10:17.473Z,0.60
2019-04-25T13:11:23.823Z,0.50
2019-04-25T13:12:28.451Z,0.57
2019-04-25T13:13:34.012Z,0.53
2019-04-25T13:14:39.122Z,0.53
2019-04-25T13:15:45.989Z,1.02
2019-04-25T13:16:50.426Z,0.98
2019-04-25T13:17:55.163Z,0.93
2019-04-25T13:19:10.082Z,0.50
2019-04-25T13:20:09.059Z,0.50
2019-04-25T13:21:14.541Z,0.40
2019-04-25T13:22:19.412Z,0.30
2019-04-25T13:23:24.285Z,0.65
2019-04-25T13:24:28.707Z,0.60
2019-04-25T13:25:34.303Z,0.47
2019-04-25T13:26:43.554Z,0.55
2019-04-25T13:27:52.280Z,0.40
2019-04-25T13:29:14.657Z,0.45
2019-04-25T13:30:21.070Z,0.60
2019-04-25T13:31:33.435Z,0.37
2019-04-25T13:32:56.577Z,0.40
2019-04-25T13:34:04.670Z,0.60
2019-04-25T13:35:23.501Z,0.50
2019-04-25T13:36:28.319Z,0.50
2019-04-25T13:37:34.179Z,0.30
2019-04-25T13:38:38.639Z,0.37
2019-04-25T13:39:44.204Z,0.35
2019-04-25T13:40:49.019Z,0.60
2019-04-25T13:41:54.402Z,0.50
2019-04-25T13:43:00.128Z,0.50
2019-04-25T13:44:05.234Z,0.30
2019-04-25T13:45:10.258Z,0.50
2019-04-25T13:47:19.498Z,0.42
2019-04-25T13:48:26.330Z,0.40
2019-04-25T13:49:31.588Z,0.50
2019-04-25T13:50:36.543Z,0.40
2019-04-25T13:51:41.009Z,0.75
2019-04-25T13:52:45.856Z,0.50
2019-04-25T13:53:50.592Z,0.55
2019-04-25T13:54:55.372Z,0.50
2019-04-25T13:56:00.125Z,0.40
2019-04-25T13:57:07.261Z,0.40
2019-04-25T13:58:14.244Z,0.40
2019-04-25T13:59:18.916Z,0.70
2019-04-25T14:00:25.107Z,0.70
2019-04-25T14:01:31.774Z,0.30
2019-04-25T14:02:36.241Z,0.30
2019-04-25T14:03:40.834Z,0.50
2019-04-25T14:04:45.314Z,0.40
2019-04-25T14:05:50.072Z,0.50
2019-04-25T14:06:54.893Z,0.40
2019-04-25T14:07:59.571Z,0.65
2019-04-25T14:09:07.266Z,0.40
2019-04-25T14:10:14.205Z,0.60
2019-04-25T14:11:18.826Z,0.40
2019-04-25T14:12:26.360Z,0.50
2019-04-25T14:13:30.071Z,0.53
2019-04-25T14:14:36.094Z,0.75
2019-04-25T14:15:43.128Z,0.42
2019-04-25T14:16:55.443Z,0.70
2019-04-25T14:18:08.132Z,0.53
2019-04-25T14:19:17.139Z,0.50
2019-04-25T14:20:26.516Z,0.50
2019-04-25T14:21:31.659Z,0.42
2019-04-25T14:22:38.755Z,0.53
2019-04-25T14:23:44.241Z,0.40
2019-04-25T14:24:49.137Z,0.50
2019-04-25T14:25:53.612Z,0.40
2019-04-25T14:26:58.491Z,0.62
2019-04-25T14:28:05.327Z,0.35
2019-04-25T14:29:09.553Z,0.60
2019-04-25T14:30:16.108Z,0.50
2019-04-25T14:31:33.764Z,0.50
2019-04-25T14:32:28.748Z,0.45
2019-04-25T14:33:35.390Z,0.68
2019-04-25T14:34:40.008Z,0.40